X  ZamknijMetar - Lotnicze dane pogodowe     EPKT Katowice International Airport

Temperatura

14°C Temperatura

11°C Punkt rosy

82% Wilgotność



Wiatr

21 km/h

13 MPH

 6 m/s

11 KTS



260°
West
Obecne warunki

Zachmurzenie Zachmurzenie
Ciśnienie 998.92 (hPa) - 29.5 (in)
Widoczność 6.2 (mi) - 10 (km)
Lotnisko
Kod lotniska EPKT

Lokalizacja Katowice International Airport 23 (km)

Metar:
EPKT 132130Z 26011KT 9999 OVC010 14/11 Q0999

Czas: 13-05-2021 23:30